Time,TemperatureF,DewpointF,PressureIn,WindDirection,WindDirectionDegrees,WindSpeedMPH,WindSpeedGustMPH,Humidity,HourlyPrecipIn,Conditions,Clouds,dailyrainin,SolarRadiationWatts/m^2,SoftwareType,DateUTC
2013-03-10 00:21:00,33.0,20.0,-100.00,ENE,57,7.0,10.0,59,0.00,,,-99.99,0.000000,,2013-03-10 07:21:00,
2013-03-10 00:32:00,33.0,20.0,-100.00,ENE,63,6.0,9.0,58,0.00,,,-99.99,0.000000,,2013-03-10 07:32:00,
2013-03-10 00:42:00,33.0,20.0,-100.00,ENE,73,5.0,7.0,58,0.00,,,-99.99,0.000000,,2013-03-10 07:42:00,
2013-03-10 00:52:00,33.0,20.0,-100.00,ENE,70,4.0,6.0,58,0.00,,,-99.99,0.000000,,2013-03-10 07:52:00,
2013-03-10 01:01:00,33.0,19.0,-100.00,ENE,60,4.0,7.0,57,0.00,,,-99.99,0.000000,,2013-03-10 08:01:00,
2013-03-10 01:11:00,32.0,19.0,-100.00,ENE,59,4.0,5.0,56,0.00,,,-99.99,0.000000,,2013-03-10 08:11:00,
2013-03-10 01:21:00,32.0,19.0,-100.00,ENE,59,4.0,5.0,56,0.00,,,-99.99,0.000000,,2013-03-10 08:21:00,
2013-03-10 01:31:00,32.0,19.0,-100.00,NE,41,4.0,5.0,58,0.00,,,-99.99,0.000000,,2013-03-10 08:31:00,
2013-03-10 01:42:00,32.0,19.0,-100.00,NE,56,3.0,4.0,59,0.00,,,-99.99,0.000000,,2013-03-10 08:42:00,
2013-03-10 01:51:00,30.0,19.0,-100.00,East,87,3.0,4.0,62,0.00,,,-99.99,0.000000,,2013-03-10 08:51:00,
2013-03-10 03:01:00,30.0,19.0,-100.00,East,87,3.0,4.0,62,0.00,,,-99.99,0.000000,,2013-03-10 09:01:00,
2013-03-10 03:11:00,31.0,17.0,-100.00,ESE,120,4.0,6.0,56,0.00,,,-99.99,0.000000,,2013-03-10 09:11:00,
2013-03-10 03:21:00,31.0,17.0,-100.00,SE,131,3.0,5.0,56,0.00,,,-99.99,0.000000,,2013-03-10 09:21:00,
2013-03-10 03:31:00,31.0,17.0,-100.00,SE,134,4.0,6.0,55,0.00,,,-99.99,0.000000,,2013-03-10 09:31:00,
2013-03-10 03:41:00,31.0,17.0,-100.00,SE,134,4.0,6.0,55,0.00,,,-99.99,0.000000,,2013-03-10 09:41:00,
2013-03-10 03:51:00,30.0,17.0,-100.00,SE,130,6.0,9.0,58,0.00,,,-99.99,0.000000,,2013-03-10 09:51:00,
2013-03-10 04:01:00,30.0,17.0,-100.00,SE,133,6.0,9.0,58,0.00,,,-99.99,0.000000,,2013-03-10 10:01:00,
2013-03-10 04:11:00,30.0,15.0,-100.00,SE,131,8.0,10.0,53,0.00,,,-99.99,0.000000,,2013-03-10 10:11:00,
2013-03-10 04:21:00,30.0,15.0,-100.00,SE,131,8.0,10.0,53,0.00,,,-99.99,0.000000,,2013-03-10 10:21:00,
2013-03-10 04:31:00,29.0,18.0,-100.00,SSW,202,3.0,4.0,62,0.00,,,-99.99,0.000000,,2013-03-10 10:31:00,
2013-03-10 04:41:00,29.0,18.0,-100.00,SSW,202,3.0,4.0,62,0.00,,,-99.99,0.000000,,2013-03-10 10:41:00,
2013-03-10 04:50:00,29.0,17.0,-100.00,SSE,149,6.0,8.0,61,0.00,,,-99.99,0.000000,,2013-03-10 10:50:00,
2013-03-10 04:51:00,28.0,20.0,-100.00,SSW,203,3.0,5.0,72,0.00,,,-99.99,0.000000,,2013-03-10 10:51:00,
2013-03-10 05:01:00,27.0,20.0,-100.00,SSE,164,3.0,5.0,73,0.00,,,-99.99,0.000000,,2013-03-10 11:01:00,
2013-03-10 05:11:00,29.0,18.0,-100.00,SE,138,4.0,5.0,63,0.00,,,-99.99,0.000000,,2013-03-10 11:11:00,
2013-03-10 05:21:00,29.0,17.0,-100.00,SSE,149,6.0,8.0,61,0.00,,,-99.99,0.000000,,2013-03-10 11:21:00,
2013-03-10 05:31:00,29.0,17.0,-100.00,SSE,149,6.0,8.0,61,0.00,,,-99.99,0.000000,,2013-03-10 11:31:00,
2013-03-10 05:42:00,29.0,17.0,-100.00,SSE,149,6.0,8.0,61,0.00,,,-99.99,0.000000,,2013-03-10 11:42:00,
2013-03-10 06:32:00,27.0,20.0,-100.00,SSW,196,3.0,4.0,74,0.00,,,-99.99,0.000000,,2013-03-10 12:32:00,
2013-03-10 06:42:00,27.0,19.0,-100.00,SSW,196,3.0,4.0,73,0.00,,,-99.99,0.000000,,2013-03-10 12:42:00,
2013-03-10 06:52:00,26.0,18.0,-100.00,SSW,203,3.0,4.0,71,0.00,,,-99.99,0.000000,,2013-03-10 12:52:00,
2013-03-10 07:01:00,26.0,18.0,-100.00,SSW,203,3.0,4.0,71,0.00,,,-99.99,0.000000,,2013-03-10 13:01:00,
2013-03-10 07:11:00,26.0,19.0,-100.00,SSW,210,3.0,4.0,76,0.00,,,-99.99,0.000000,,2013-03-10 13:11:00,
2013-03-10 07:21:00,26.0,19.0,-100.00,SSW,200,4.0,7.0,74,0.00,,,-99.99,0.000000,,2013-03-10 13:21:00,
2013-03-10 07:31:00,26.0,18.0,-100.00,South,172,3.0,6.0,69,0.00,,,-99.99,0.000000,,2013-03-10 13:31:00,
2013-03-10 07:41:00,26.0,18.0,-100.00,SSW,203,2.0,4.0,70,0.00,,,-99.99,0.000000,,2013-03-10 13:41:00,
2013-03-10 07:51:00,26.0,19.0,-100.00,SSW,210,5.0,7.0,74,0.00,,,-99.99,0.000000,,2013-03-10 13:51:00,
2013-03-10 08:01:00,26.0,19.0,-100.00,SSW,210,5.0,7.0,74,0.00,,,-99.99,0.000000,,2013-03-10 14:01:00,
2013-03-10 08:11:00,27.0,18.0,-100.00,SSW,204,5.0,8.0,70,0.00,,,-99.99,2.000000,,2013-03-10 14:11:00,
2013-03-10 08:21:00,26.0,19.0,-100.00,SW,222,6.0,8.0,73,0.00,,,-99.99,6.000000,,2013-03-10 14:21:00,
2013-03-10 08:32:00,26.0,18.0,-100.00,SSW,204,6.0,8.0,71,0.00,,,-99.99,10.000000,,2013-03-10 14:32:00,
2013-03-10 08:41:00,27.0,18.0,-100.00,South,183,4.0,7.0,68,0.00,,,-99.99,14.000000,,2013-03-10 14:41:00,
2013-03-10 08:51:00,27.0,19.0,-100.00,SW,225,5.0,8.0,73,0.00,,,-99.99,17.000000,,2013-03-10 14:51:00,
2013-03-10 09:01:00,27.0,19.0,-100.00,SW,225,5.0,8.0,73,0.00,,,-99.99,17.000000,,2013-03-10 15:01:00,
2013-03-10 09:11:00,27.0,19.0,-100.00,SSW,208,4.0,7.0,71,0.00,,,-99.99,22.000000,,2013-03-10 15:11:00,
2013-03-10 09:21:00,27.0,19.0,-100.00,SSW,210,5.0,7.0,72,0.00,,,-99.99,24.000000,,2013-03-10 15:21:00,
2013-03-10 09:31:00,27.0,19.0,-100.00,SSW,211,7.0,10.0,72,0.00,,,-99.99,209.000000,,2013-03-10 15:31:00,
2013-03-10 09:40:00,32.0,20.0,-100.00,SSW,207,5.0,7.0,62,0.00,,,-99.99,349.000000,,2013-03-10 15:40:00,
2013-03-10 09:41:00,29.0,20.0,-100.00,SSW,208,8.0,11.0,69,0.00,,,-99.99,244.000000,,2013-03-10 15:41:00,
2013-03-10 09:51:00,29.0,20.0,-100.00,SSW,205,7.0,10.0,68,0.00,,,-99.99,279.000000,,2013-03-10 15:51:00,
2013-03-10 10:01:00,29.0,20.0,-100.00,SSW,205,7.0,10.0,68,0.00,,,-99.99,279.000000,,2013-03-10 16:01:00,
2013-03-10 10:11:00,32.0,20.0,-100.00,SSW,207,5.0,7.0,62,0.00,,,-99.99,349.000000,,2013-03-10 16:11:00,
2013-03-10 10:21:00,32.0,20.0,-100.00,SSW,207,5.0,7.0,62,0.00,,,-99.99,349.000000,,2013-03-10 16:21:00,
2013-03-10 10:31:00,32.0,20.0,-100.00,SSW,207,5.0,7.0,62,0.00,,,-99.99,349.000000,,2013-03-10 16:31:00,
2013-03-10 11:51:00,38.0,20.0,-100.00,SW,224,6.0,8.0,47,0.00,,,-99.99,665.000000,,2013-03-10 17:51:00,
2013-03-10 12:01:00,39.0,22.0,-100.00,SW,219,5.0,8.0,50,0.00,,,-99.99,684.000000,,2013-03-10 18:01:00,
2013-03-10 12:11:00,40.0,20.0,-100.00,SSW,197,5.0,9.0,45,0.00,,,-99.99,703.000000,,2013-03-10 18:11:00,
2013-03-10 12:21:00,40.0,22.0,-100.00,SW,223,4.0,6.0,47,0.00,,,-99.99,721.000000,,2013-03-10 18:21:00,
2013-03-10 12:31:00,40.0,22.0,-100.00,SW,223,4.0,6.0,47,0.00,,,-99.99,721.000000,,2013-03-10 18:31:00,
2013-03-10 12:41:00,42.0,21.0,-100.00,SE,140,3.0,4.0,44,0.00,,,-99.99,750.000000,,2013-03-10 18:41:00,
2013-03-10 12:52:00,42.0,21.0,-100.00,SE,140,3.0,4.0,44,0.00,,,-99.99,750.000000,,2013-03-10 18:52:00,
2013-03-10 13:01:00,42.0,22.0,-100.00,WSW,246,4.0,7.0,44,0.00,,,-99.99,775.000000,,2013-03-10 19:01:00,
2013-03-10 13:11:00,42.0,20.0,-100.00,ENE,71,5.0,7.0,41,0.00,,,-99.99,784.000000,,2013-03-10 19:11:00,
2013-03-10 13:21:00,42.0,20.0,-100.00,NE,54,5.0,8.0,41,0.00,,,-99.99,793.000000,,2013-03-10 19:21:00,
2013-03-10 13:31:00,43.0,17.0,-100.00,ESE,102,3.0,6.0,34,0.00,,,-99.99,802.000000,,2013-03-10 19:31:00,
2013-03-10 13:41:00,42.0,18.0,-100.00,East,93,5.0,7.0,37,0.00,,,-99.99,803.000000,,2013-03-10 19:41:00,
2013-03-10 13:52:00,43.0,18.0,-100.00,East,100,3.0,7.0,37,0.00,,,-99.99,805.000000,,2013-03-10 19:52:00,
2013-03-10 14:01:00,44.0,18.0,-100.00,South,191,4.0,7.0,35,0.00,,,-99.99,807.000000,,2013-03-10 20:01:00,
2013-03-10 14:12:00,44.0,21.0,-100.00,SSW,193,3.0,6.0,39,0.00,,,-99.99,806.000000,,2013-03-10 20:12:00,
2013-03-10 14:21:00,44.0,19.0,-100.00,SSE,154,4.0,6.0,36,0.00,,,-99.99,804.000000,,2013-03-10 20:21:00,
2013-03-10 14:32:00,44.0,17.0,-100.00,SE,138,3.0,5.0,34,0.00,,,-99.99,800.000000,,2013-03-10 20:32:00,
2013-03-10 14:42:00,44.0,18.0,-100.00,WSW,244,3.0,6.0,34,0.00,,,-99.99,793.000000,,2013-03-10 20:42:00,
2013-03-10 14:50:00,45.0,18.0,-100.00,WSW,258,3.0,6.0,33,0.00,,,-99.99,761.000000,,2013-03-10 20:50:00,
2013-03-10 14:52:00,45.0,21.0,-100.00,ESE,109,4.0,6.0,38,0.00,,,-99.99,784.000000,,2013-03-10 20:52:00,
2013-03-10 15:02:00,45.0,17.0,-100.00,South,180,4.0,6.0,33,0.00,,,-99.99,775.000000,,2013-03-10 21:02:00,
2013-03-10 15:12:00,45.0,18.0,-100.00,WSW,258,3.0,6.0,33,0.00,,,-99.99,761.000000,,2013-03-10 21:12:00,
2013-03-10 15:22:00,45.0,18.0,-100.00,WSW,258,3.0,6.0,33,0.00,,,-99.99,761.000000,,2013-03-10 21:22:00,
2013-03-10 15:32:00,45.0,18.0,-100.00,WSW,258,3.0,6.0,33,0.00,,,-99.99,761.000000,,2013-03-10 21:32:00,
2013-03-10 15:42:00,45.0,18.0,-100.00,WSW,258,3.0,6.0,33,0.00,,,-99.99,761.000000,,2013-03-10 21:42:00,
2013-03-10 16:22:00,47.0,19.0,-100.00,East,82,5.0,9.0,32,0.00,,,-99.99,634.000000,,2013-03-10 22:22:00,
2013-03-10 16:32:00,47.0,20.0,-100.00,ESE,110,3.0,6.0,34,0.00,,,-99.99,606.000000,,2013-03-10 22:32:00,
2013-03-10 16:43:00,48.0,19.0,-100.00,SSE,148,4.0,8.0,32,0.00,,,-99.99,583.000000,,2013-03-10 22:43:00,
2013-03-10 16:53:00,48.0,20.0,-100.00,SSW,192,4.0,7.0,32,0.00,,,-99.99,555.000000,,2013-03-10 22:53:00,
2013-03-10 17:02:00,48.0,17.0,-100.00,SE,131,3.0,6.0,29,0.00,,,-99.99,527.000000,,2013-03-10 23:02:00,
2013-03-10 17:11:00,47.0,18.0,-100.00,East,87,4.0,6.0,30,0.00,,,-99.99,499.000000,,2013-03-10 23:11:00,
2013-03-10 17:21:00,48.0,17.0,-100.00,East,92,3.0,4.0,29,0.00,,,-99.99,468.000000,,2013-03-10 23:21:00,
2013-03-10 17:32:00,50.0,20.0,-100.00,SSW,196,4.0,7.0,31,0.00,,,-99.99,434.000000,,2013-03-10 23:32:00,
2013-03-10 17:42:00,50.0,19.0,-100.00,South,190,5.0,9.0,30,0.00,,,-99.99,401.000000,,2013-03-10 23:42:00,
2013-03-10 17:51:00,49.0,22.0,-100.00,SW,231,5.0,7.0,33,0.00,,,-99.99,370.000000,,2013-03-10 23:51:00,
2013-03-10 18:02:00,49.0,20.0,-100.00,South,175,4.0,7.0,31,0.00,,,-99.99,333.000000,,2013-03-11 00:02:00,
2013-03-10 18:12:00,49.0,21.0,-100.00,SSE,166,5.0,8.0,33,0.00,,,-99.99,300.000000,,2013-03-11 00:12:00,
2013-03-10 18:22:00,48.0,22.0,-100.00,East,100,6.0,9.0,36,0.00,,,-99.99,254.000000,,2013-03-11 00:22:00,
2013-03-10 18:32:00,47.0,22.0,-100.00,NE,44,5.0,9.0,37,0.00,,,-99.99,233.000000,,2013-03-11 00:32:00,
2013-03-10 18:42:00,47.0,23.0,-100.00,NE,51,6.0,9.0,38,0.00,,,-99.99,157.000000,,2013-03-11 00:42:00,
2013-03-10 18:52:00,46.0,23.0,-100.00,NNE,29,6.0,10.0,40,0.00,,,-99.99,90.000000,,2013-03-11 00:52:00,
2013-03-10 19:02:00,45.0,25.0,-100.00,NNE,32,6.0,10.0,44,0.00,,,-99.99,139.000000,,2013-03-11 01:02:00,
2013-03-10 19:12:00,45.0,24.0,-100.00,NNE,29,7.0,9.0,44,0.00,,,-99.99,80.000000,,2013-03-11 01:12:00,
2013-03-10 19:22:00,44.0,23.0,-100.00,NNE,31,7.0,10.0,43,0.00,,,-99.99,48.000000,,2013-03-11 01:22:00,
2013-03-10 19:32:00,43.0,23.0,-100.00,NNE,31,6.0,9.0,46,0.00,,,-99.99,28.000000,,2013-03-11 01:32:00,
2013-03-10 19:42:00,42.0,23.0,-100.00,NNE,32,5.0,7.0,47,0.00,,,-99.99,13.000000,,2013-03-11 01:42:00,
2013-03-10 19:50:00,41.0,22.0,-100.00,NE,55,5.0,9.0,47,0.00,,,-99.99,0.000000,,2013-03-11 01:50:00,
2013-03-10 19:52:00,41.0,23.0,-100.00,NNE,29,5.0,7.0,48,0.00,,,-99.99,4.000000,,2013-03-11 01:52:00,
2013-03-10 20:02:00,41.0,22.0,-100.00,NE,47,5.0,7.0,46,0.00,,,-99.99,1.000000,,2013-03-11 02:02:00,
2013-03-10 20:12:00,41.0,22.0,-100.00,NE,55,5.0,9.0,47,0.00,,,-99.99,0.000000,,2013-03-11 02:12:00,
2013-03-10 20:21:00,41.0,22.0,-100.00,NE,55,5.0,9.0,47,0.00,,,-99.99,0.000000,,2013-03-11 02:21:00,
2013-03-10 20:32:00,41.0,22.0,-100.00,NE,55,5.0,9.0,47,0.00,,,-99.99,0.000000,,2013-03-11 02:32:00,
2013-03-10 20:42:00,41.0,22.0,-100.00,NE,55,5.0,9.0,47,0.00,,,-99.99,0.000000,,2013-03-11 02:42:00,
2013-03-10 21:22:00,38.0,22.0,-100.00,ENE,71,5.0,7.0,52,0.00,,,-99.99,0.000000,,2013-03-11 03:22:00,
2013-03-10 21:32:00,38.0,23.0,-100.00,ENE,77,5.0,7.0,55,0.00,,,-99.99,0.000000,,2013-03-11 03:32:00,
2013-03-10 21:42:00,37.0,23.0,-100.00,East,94,5.0,6.0,56,0.00,,,-99.99,0.000000,,2013-03-11 03:42:00,
2013-03-10 21:52:00,36.0,23.0,-100.00,East,101,4.0,5.0,58,0.00,,,-99.99,0.000000,,2013-03-11 03:52:00,
2013-03-10 22:02:00,35.0,23.0,-100.00,ESE,110,3.0,4.0,61,0.00,,,-99.99,0.000000,,2013-03-11 04:02:00,
2013-03-10 22:12:00,35.0,23.0,-100.00,East,92,3.0,4.0,63,0.00,,,-99.99,0.000000,,2013-03-11 04:12:00,
2013-03-10 22:21:00,34.0,24.0,-100.00,East,88,3.0,4.0,64,0.00,,,-99.99,0.000000,,2013-03-11 04:21:00,
2013-03-10 22:32:00,34.0,23.0,-100.00,ESE,108,3.0,4.0,64,0.00,,,-99.99,0.000000,,2013-03-11 04:32:00,
2013-03-10 22:42:00,35.0,24.0,-100.00,East,98,3.0,4.0,63,0.00,,,-99.99,0.000000,,2013-03-11 04:42:00,
2013-03-10 22:52:00,35.0,23.0,-100.00,ESE,119,3.0,4.0,63,0.00,,,-99.99,0.000000,,2013-03-11 04:52:00,
2013-03-10 23:02:00,34.0,23.0,-100.00,SSE,154,3.0,5.0,63,0.00,,,-99.99,0.000000,,2013-03-11 05:02:00,
2013-03-10 23:11:00,34.0,24.0,-100.00,SE,125,4.0,5.0,66,0.00,,,-99.99,0.000000,,2013-03-11 05:11:00,
2013-03-10 23:21:00,34.0,24.0,-100.00,SSE,154,3.0,5.0,67,0.00,,,-99.99,0.000000,,2013-03-11 05:21:00,
2013-03-10 23:32:00,33.0,24.0,-100.00,SSW,211,5.0,7.0,69,0.00,,,-99.99,0.000000,,2013-03-11 05:32:00,
2013-03-10 23:42:00,34.0,25.0,-100.00,SSW,212,5.0,6.0,69,0.00,,,-99.99,0.000000,,2013-03-11 05:42:00,
2013-03-10 23:51:00,33.0,25.0,-100.00,South,178,4.0,6.0,72,0.00,,,-99.99,0.000000,,2013-03-11 05:51:00,